TED STEVENS ANCHORAGE INTL

PANC (ANC)
Anchorage, Alaska
Towered

Vatsim Metar:
PANC 011653Z 20004KT 10SM SCT005 BKN023 OVC030 06/06 A2962 RMK AO2 SLP030 T00610056

TED STEVENS ANCHORAGE INTL ATC

ANC_NH_APP - 118.600 - Toby Chick
Ïåòåðáóðã-Êîíòðîëü / Peterburg-Control Top-down control for ULLI, ULAA, ULMM, ULWW/ULWC, ULKK, UUYY aerodromes areas. Check coverage at www.ulll.vatsim.ru. We love feedback! Join us on Discord discord.gg/YpTjQVn

Traffic

Inbound:
Ident
Type
Name
ETA
Phase
ASA10
B737
Julie Zaremskiy KPDX
17:47 Z
Climb
UPS2336
B748
Jack Jones KDAB
18:21 Z
Cruse
GTI2587
B748
DONGHYEON YUN KCVG
20:47 Z
Cruse
AAL1735
B78X
Thayyeb Ikraam OMDB
Taxiing Out
BAW135
A35K
Harry EGPH
Boarding

Outbound:
Ident
Type
Name
Destination
Phase
ASA138
B738
Kyle Alley KSEA
KORD
Boarding
ASA7029
B737
Michael Houghton KHOU
PASC
Climb
GEC1032
B77L
Miguel Tolda LPPT
KCVG
Climb